OSDI/DAM METAR and TAF weather

Enter ICAO airport designator
Station Type Date Time Source
OSDI METAR 2022/05/26 05:00 UTC NOAA

OSDI 260500A 02002KT CAVOK 22/03 Q1019


Station Type Date Time Source
OSDI Decoded METAR 2022/05/26 05:00 UTC NOAA

Damascus Int. Airport, Syria (OSDI) 33-25N 036-31E 609M
May 26, 2022 - 01:00 AM EDT / 2022.05.26 0500 UTC
Wind: from the NNE (020 degrees) at 2 MPH (2 KT):0
Visibility: greater than 7 mile(s):0
Temperature: 71 F (22 C)
Dew Point: 37 F (3 C)
Relative Humidity: 28%
Pressure (altimeter): 30.09 in. Hg (1019 hPa)
ob: OSDI 260500A 02002KT CAVOK 22/03 Q1019
cycle: 5

Station Type Date Time Source
OSDI TAF 2022/05/26 06:21 UTC NOAA

TAF OSDI 260300Z 2606/2712 22010KT CAVOK
TEMPO 2612/2618 24010G20KT

Example: see airport list